Time;durP1;ratioP1;P1;durP2;ratioP2;P2;SDS_P1;SDS_P2;PMS_P1;PMS_P2;Temp;Humidity;BMP_temperature;BMP_pressure;BME280_temperature;BME280_humidity;BME280_pressure;Samples;Min_cycle;Max_cycle;Signal;HPM_P1;HPM_P2
2023/01/14 00:01:23;;;;;;;6.30;4.70;;;;;;;;;;5022436;28;20042;-64
2023/01/14 00:03:48;;;;;;;6.38;5.20;;;;;;;;;;5008120;28;20054;-64
2023/01/14 00:06:15;;;;;;;5.90;4.87;;;;;;;;;;5022936;28;20060;-63
2023/01/14 00:08:40;;;;;;;6.80;4.93;;;;;;;;;;5046822;28;20378;-64
2023/01/14 00:11:05;;;;;;;6.70;5.05;;;;;;;;;;5030579;28;20140;-65
2023/01/14 00:13:31;;;;;;;6.28;4.82;;;;;;;;;;5041879;28;20485;-64
2023/01/14 00:15:56;;;;;;;6.50;5.03;;;;;;;;;;5031622;28;20029;-64
2023/01/14 00:18:22;;;;;;;6.30;4.70;;;;;;;;;;5036250;28;20082;-63
2023/01/14 00:20:54;;;;;;;6.15;4.88;;;;;;;;;;5029448;28;20115;-66
2023/01/14 00:23:20;;;;;;;7.40;4.53;;;;;;;;;;5032412;28;20454;-63
2023/01/14 00:25:45;;;;;;;6.30;4.90;;;;;;;;;;5034112;28;20140;-64
2023/01/14 00:28:10;;;;;;;6.28;5.00;;;;;;;;;;5040213;28;20406;-64
2023/01/14 00:30:36;;;;;;;6.73;5.17;;;;;;;;;;5033372;28;20039;-62
2023/01/14 00:33:01;;;;;;;6.50;5.23;;;;;;;;;;5029039;28;20350;-64
2023/01/14 00:35:26;;;;;;;6.57;4.97;;;;;;;;;;5030230;28;20280;-64
2023/01/14 00:37:51;;;;;;;8.03;5.43;;;;;;;;;;5040678;28;20846;-66
2023/01/14 00:40:16;;;;;;;5.90;4.80;;;;;;;;;;5028830;28;20858;-63
2023/01/14 00:42:42;;;;;;;6.60;5.23;;;;;;;;;;5029096;28;20068;-64
2023/01/14 00:45:07;;;;;;;6.97;5.33;;;;;;;;;;5030347;28;20316;-63
2023/01/14 00:47:32;;;;;;;6.45;5.00;;;;;;;;;;5043344;28;20287;-64
2023/01/14 00:49:58;;;;;;;7.03;5.40;;;;;;;;;;5030931;28;20424;-63
2023/01/14 00:52:23;;;;;;;6.93;5.47;;;;;;;;;;5028690;28;20365;-65
2023/01/14 00:54:48;;;;;;;6.67;4.90;;;;;;;;;;5028472;28;20216;-65
2023/01/14 00:57:15;;;;;;;6.50;5.27;;;;;;;;;;5040999;28;20373;-64
2023/01/14 00:59:41;;;;;;;6.68;5.18;;;;;;;;;;5047474;28;20038;-62
2023/01/14 01:02:07;;;;;;;7.23;5.23;;;;;;;;;;5030174;28;20022;-64
2023/01/14 01:04:32;;;;;;;12.23;5.28;;;;;;;;;;5031000;28;20112;-64
2023/01/14 01:06:57;;;;;;;6.93;4.87;;;;;;;;;;5038163;28;20088;-63
2023/01/14 01:09:23;;;;;;;6.47;5.03;;;;;;;;;;5030671;28;20326;-64
2023/01/14 01:11:48;;;;;;;6.95;5.45;;;;;;;;;;5038227;28;20489;-65
2023/01/14 01:14:13;;;;;;;8.38;6.03;;;;;;;;;;5028222;28;20030;-65
2023/01/14 01:16:38;;;;;;;7.13;5.87;;;;;;;;;;5034865;28;20049;-65
2023/01/14 01:19:04;;;;;;;6.65;5.57;;;;;;;;;;5042316;28;20297;-65
2023/01/14 01:21:29;;;;;;;6.50;5.20;;;;;;;;;;5027951;28;20035;-64
2023/01/14 01:23:54;;;;;;;6.73;5.20;;;;;;;;;;5015031;23;20579;-76
2023/01/14 01:26:20;;;;;;;6.70;5.35;;;;;;;;;;5000713;28;20290;-75
2023/01/14 01:28:49;;;;;;;6.80;5.43;;;;;;;;;;4999050;28;20124;-75
2023/01/14 01:31:15;;;;;;;7.32;5.85;;;;;;;;;;5002428;28;20038;-75
2023/01/14 01:33:40;;;;;;;8.02;5.93;;;;;;;;;;5021732;28;20455;-77
2023/01/14 01:36:10;;;;;;;6.47;5.50;;;;;;;;;;5033299;28;20033;-78
2023/01/14 01:38:35;;;;;;;7.78;5.53;;;;;;;;;;5025738;28;20057;-75
2023/01/14 01:41:01;;;;;;;8.70;5.53;;;;;;;;;;5027424;23;20034;-65
2023/01/14 01:43:28;;;;;;;7.53;5.67;;;;;;;;;;4993158;23;20371;-73
2023/01/14 01:45:53;;;;;;;7.18;5.47;;;;;;;;;;4966204;28;20311;-74
2023/01/14 01:48:18;;;;;;;7.72;5.90;;;;;;;;;;4950680;28;20410;-74
2023/01/14 01:50:44;;;;;;;6.87;5.33;;;;;;;;;;4977059;28;20487;-72
2023/01/14 01:53:09;;;;;;;7.30;5.43;;;;;;;;;;4970399;28;20588;-73
2023/01/14 01:55:35;;;;;;;7.40;5.57;;;;;;;;;;4966651;28;20186;-73
2023/01/14 01:58:01;;;;;;;6.78;5.78;;;;;;;;;;4966243;28;20925;-73
2023/01/14 02:00:26;;;;;;;7.30;5.28;;;;;;;;;;4965935;28;20485;-73
2023/01/14 02:02:52;;;;;;;7.60;5.60;;;;;;;;;;4981075;28;20034;-73
2023/01/14 02:05:18;;;;;;;6.82;5.20;;;;;;;;;;4962957;28;20305;-74
2023/01/14 02:07:43;;;;;;;8.27;5.73;;;;;;;;;;4968623;28;20037;-73
2023/01/14 02:10:08;;;;;;;7.47;5.85;;;;;;;;;;4966047;28;20595;-73
2023/01/14 02:12:39;;;;;;;6.53;5.57;;;;;;;;;;4965764;28;20126;-74
2023/01/14 02:15:10;;;;;;;7.40;5.55;;;;;;;;;;4981897;28;20521;-74
2023/01/14 02:17:46;;;;;;;7.35;5.88;;;;;;;;;;4968271;28;20041;-74
2023/01/14 02:20:22;;;;;;;7.70;6.10;;;;;;;;;;4981490;28;20041;-73
2023/01/14 02:22:47;;;;;;;7.13;5.88;;;;;;;;;;4966492;28;20265;-73
2023/01/14 02:25:31;;;;;;;8.27;5.90;;;;;;;;;;4970065;28;20104;-73
2023/01/14 02:28:02;;;;;;;7.10;5.30;;;;;;;;;;4963895;28;20297;-73
2023/01/14 02:30:44;;;;;;;7.95;5.88;;;;;;;;;;4981101;28;20062;-73
2023/01/14 02:33:15;;;;;;;7.80;6.05;;;;;;;;;;4957364;28;20043;-73
2023/01/14 02:35:42;;;;;;;6.82;5.60;;;;;;;;;;4966385;28;20045;-73
2023/01/14 02:38:13;;;;;;;7.60;5.72;;;;;;;;;;4982142;28;20034;-72
2023/01/14 02:40:57;;;;;;;7.78;6.00;;;;;;;;;;4965102;28;20031;-71
2023/01/14 02:46:10;;;;;;;7.53;6.20;;;;;;;;;;4975567;28;20121;-72
2023/01/14 02:48:35;;;;;;;7.32;5.68;;;;;;;;;;4967538;28;20094;-72
2023/01/14 02:51:00;;;;;;;8.10;5.97;;;;;;;;;;4980807;28;20038;-72
2023/01/14 02:53:26;;;;;;;7.23;5.80;;;;;;;;;;4965805;28;20568;-72
2023/01/14 02:55:51;;;;;;;8.13;6.30;;;;;;;;;;4970150;28;20465;-74
2023/01/14 02:58:31;;;;;;;7.23;5.80;;;;;;;;;;4954865;28;20906;-72
2023/01/14 03:00:57;;;;;;;7.65;5.60;;;;;;;;;;4969665;28;20440;-73
2023/01/14 03:03:26;;;;;;;8.50;6.70;;;;;;;;;;4977500;28;20600;-73
2023/01/14 03:05:58;;;;;;;7.57;5.95;;;;;;;;;;4964118;28;20070;-73
2023/01/14 03:08:24;;;;;;;7.60;5.75;;;;;;;;;;4977253;28;20086;-74
2023/01/14 03:10:52;;;;;;;7.20;5.85;;;;;;;;;;4960645;28;20062;-74
2023/01/14 03:13:17;;;;;;;7.90;5.90;;;;;;;;;;4953618;28;20521;-73
2023/01/14 03:15:46;;;;;;;7.43;5.57;;;;;;;;;;4965401;28;20073;-73
2023/01/14 03:18:15;;;;;;;9.05;5.65;;;;;;;;;;4980323;28;20045;-73
2023/01/14 03:20:41;;;;;;;7.75;6.15;;;;;;;;;;4965472;28;20051;-73
2023/01/14 03:23:07;;;;;;;7.82;6.13;;;;;;;;;;4988002;28;20077;-73
2023/01/14 03:25:33;;;;;;;7.60;5.55;;;;;;;;;;4966867;28;20137;-73
2023/01/14 03:27:58;;;;;;;7.35;5.93;;;;;;;;;;4990201;23;20142;-66
2023/01/14 03:30:25;;;;;;;8.10;5.90;;;;;;;;;;4985547;28;20042;-64
2023/01/14 03:32:53;;;;;;;7.90;6.07;;;;;;;;;;4971116;28;20049;-64
2023/01/14 03:35:23;;;;;;;7.28;5.90;;;;;;;;;;4986478;28;20038;-67
2023/01/14 03:37:53;;;;;;;8.68;6.28;;;;;;;;;;4997843;28;20039;-66
2023/01/14 03:40:19;;;;;;;8.60;6.07;;;;;;;;;;4986548;28;20019;-66
2023/01/14 03:42:45;;;;;;;7.50;5.78;;;;;;;;;;4974058;28;20035;-64
2023/01/14 03:45:10;;;;;;;8.13;6.07;;;;;;;;;;4985955;28;20048;-64
2023/01/14 03:47:36;;;;;;;7.72;5.85;;;;;;;;;;4987946;23;20137;-73
2023/01/14 03:50:02;;;;;;;7.85;6.35;;;;;;;;;;5003821;28;20065;-75
2023/01/14 03:52:34;;;;;;;8.48;6.30;;;;;;;;;;5001666;28;20493;-67
2023/01/14 03:55:04;;;;;;;7.82;6.30;;;;;;;;;;4986978;28;20562;-72
2023/01/14 03:57:29;;;;;;;;;;;;;;;;;;4995302;28;20042;-65
2023/01/14 04:00:05;;;;;;;8.13;5.97;;;;;;;;;;4989035;28;19929;-69
2023/01/14 04:02:30;;;;;;;7.20;5.93;;;;;;;;;;5016739;28;20053;-69
2023/01/14 04:04:55;;;;;;;7.82;6.25;;;;;;;;;;4989806;28;20051;-70
2023/01/14 04:07:20;;;;;;;8.53;6.30;;;;;;;;;;4992261;28;20417;-66
2023/01/14 04:09:46;;;;;;;7.32;6.20;;;;;;;;;;4972118;28;20277;-67
2023/01/14 04:12:11;;;;;;;7.03;5.50;;;;;;;;;;4995364;28;20055;-70
2023/01/14 04:17:21;;;;;;;7.78;6.05;;;;;;;;;;4992495;28;20324;-74
2023/01/14 04:19:46;;;;;;;7.85;6.40;;;;;;;;;;5001987;28;20049;-64
2023/01/14 04:22:12;;;;;;;7.57;6.47;;;;;;;;;;4988170;28;20027;-71
2023/01/14 04:24:37;;;;;;;7.60;6.10;;;;;;;;;;4971452;28;20286;-73
2023/01/14 04:27:02;;;;;;;8.63;6.50;;;;;;;;;;4988784;28;20041;-73
2023/01/14 04:29:27;;;;;;;7.68;6.05;;;;;;;;;;4987977;28;20364;-70
2023/01/14 04:31:53;;;;;;;7.22;6.35;;;;;;;;;;4990244;23;20069;-62
2023/01/14 04:34:18;;;;;;;7.82;6.40;;;;;;;;;;4972210;28;20430;-64
2023/01/14 04:36:43;;;;;;;7.97;6.28;;;;;;;;;;4978596;28;20042;-64
2023/01/14 04:39:08;;;;;;;7.83;6.30;;;;;;;;;;4967434;28;20122;-63
2023/01/14 04:44:18;;;;;;;7.80;6.03;;;;;;;;;;4964070;28;20038;-64
2023/01/14 04:46:43;;;;;;;7.50;6.10;;;;;;;;;;4968246;28;20038;-63
2023/01/14 04:49:08;;;;;;;11.07;5.80;;;;;;;;;;4968086;28;20289;-64
2023/01/14 04:51:33;;;;;;;7.47;5.80;;;;;;;;;;4979282;23;20952;-73
2023/01/14 04:53:59;;;;;;;7.87;6.40;;;;;;;;;;4973977;28;20505;-71
2023/01/14 04:56:24;;;;;;;6.70;5.72;;;;;;;;;;4971339;28;20294;-69
2023/01/14 04:58:49;;;;;;;7.57;6.33;;;;;;;;;;4979458;28;20039;-62
2023/01/14 05:04:18;;;;;;;7.68;6.07;;;;;;;;;;4977651;23;20317;-64
2023/01/14 05:06:43;;;;;;;8.23;6.10;;;;;;;;;;4964424;28;20553;-58
2023/01/14 05:09:08;;;;;;;7.00;5.65;;;;;;;;;;4977567;23;20113;-64
2023/01/14 05:11:33;;;;;;;6.50;5.60;;;;;;;;;;4968449;28;20459;-63
2023/01/14 05:13:59;;;;;;;7.25;5.57;;;;;;;;;;4981252;28;20282;-68
2023/01/14 05:16:26;;;;;;;7.73;6.00;;;;;;;;;;4965937;28;20042;-63
2023/01/14 05:18:52;;;;;;;8.40;6.18;;;;;;;;;;4986405;23;20393;-65
2023/01/14 05:21:17;;;;;;;7.55;6.25;;;;;;;;;;4982360;28;20130;-69
2023/01/14 05:23:43;;;;;;;8.10;6.20;;;;;;;;;;4967882;28;20492;-76
2023/01/14 05:26:08;;;;;;;7.45;5.80;;;;;;;;;;4976364;28;20053;-77
2023/01/14 05:28:33;;;;;;;7.53;5.80;;;;;;;;;;4966263;28;20050;-71
2023/01/14 05:30:59;;;;;;;7.20;6.10;;;;;;;;;;4991724;28;20048;-73
2023/01/14 05:33:24;;;;;;;7.60;6.20;;;;;;;;;;4973314;28;20067;-69
2023/01/14 05:35:53;;;;;;;7.20;5.43;;;;;;;;;;4962130;28;20049;-65
2023/01/14 05:38:18;;;;;;;7.10;5.80;;;;;;;;;;4967224;28;20035;-67
2023/01/14 05:40:44;;;;;;;7.43;5.65;;;;;;;;;;4966727;28;20834;-70
2023/01/14 05:45:53;;;;;;;7.15;5.82;;;;;;;;;;4969083;28;20054;-64
2023/01/14 05:48:19;;;;;;;5.97;5.38;;;;;;;;;;4966217;28;20019;-71
2023/01/14 05:50:44;;;;;;;7.05;5.75;;;;;;;;;;4961446;28;20047;-67
2023/01/14 05:53:10;;;;;;;7.05;5.72;;;;;;;;;;4980191;28;20062;-69
2023/01/14 05:55:35;;;;;;;6.50;5.60;;;;;;;;;;4965933;28;20019;-68
2023/01/14 05:58:01;;;;;;;6.88;5.78;;;;;;;;;;4968963;28;20305;-72
2023/01/14 06:08:32;;;;;;;6.75;5.80;;;;;;;;;;4977470;28;20031;-71
2023/01/14 06:10:59;;;;;;;7.00;5.45;;;;;;;;;;4955319;28;20557;-68
2023/01/14 06:13:24;;;;;;;7.00;5.82;;;;;;;;;;4980518;28;20077;-63
2023/01/14 06:15:55;;;;;;;6.40;5.20;;;;;;;;;;4974870;28;20053;-68
2023/01/14 06:18:23;;;;;;;7.30;6.10;;;;;;;;;;4965276;28;20314;-63
2023/01/14 06:20:52;;;;;;;7.28;5.80;;;;;;;;;;4964889;28;20460;-74
2023/01/14 06:23:20;;;;;;;7.30;5.72;;;;;;;;;;4964790;28;20038;-75
2023/01/14 06:25:46;;;;;;;6.78;5.65;;;;;;;;;;4965269;28;20043;-71
2023/01/14 06:28:12;;;;;;;6.93;5.45;;;;;;;;;;4973030;28;20039;-65
2023/01/14 06:30:37;;;;;;;7.47;5.80;;;;;;;;;;4980848;28;20027;-72
2023/01/14 06:33:02;;;;;;;7.37;5.73;;;;;;;;;;4948183;28;20122;-70
2023/01/14 06:35:27;;;;;;;6.38;5.28;;;;;;;;;;4956690;28;20683;-69
2023/01/14 06:37:53;;;;;;;7.35;5.47;;;;;;;;;;4967088;28;20479;-71
2023/01/14 06:40:19;;;;;;;6.63;5.47;;;;;;;;;;4981498;28;20335;-66
2023/01/14 06:42:45;;;;;;;7.03;5.43;;;;;;;;;;4966121;28;20423;-74
2023/01/14 06:45:10;;;;;;;6.90;5.57;;;;;;;;;;4950901;28;20122;-63
2023/01/14 06:47:35;;;;;;;7.32;5.68;;;;;;;;;;4964124;28;20054;-70
2023/01/14 06:50:01;;;;;;;7.13;5.22;;;;;;;;;;4981619;28;20042;-74
2023/01/14 06:52:26;;;;;;;5.75;5.13;;;;;;;;;;4956102;28;20061;-74
2023/01/14 06:54:55;;;;;;;11.00;6.20;;;;;;;;;;4985192;28;20099;-69
2023/01/14 06:57:21;;;;;;;8.35;6.00;;;;;;;;;;4948737;28;20665;-70
2023/01/14 06:59:46;;;;;;;7.55;5.80;;;;;;;;;;4965242;28;20043;-62
2023/01/14 07:02:11;;;;;;;8.27;5.25;;;;;;;;;;4952134;28;20093;-74
2023/01/14 07:04:37;;;;;;;8.02;5.65;;;;;;;;;;4967465;28;20058;-67
2023/01/14 07:07:02;;;;;;;7.18;5.35;;;;;;;;;;4950681;28;20039;-68
2023/01/14 07:09:27;;;;;;;7.15;5.72;;;;;;;;;;4979860;28;20114;-77
2023/01/14 07:11:53;;;;;;;6.90;5.37;;;;;;;;;;4965757;28;20038;-73
2023/01/14 07:14:18;;;;;;;7.07;5.57;;;;;;;;;;4965532;28;20286;-67
2023/01/14 07:16:43;;;;;;;8.43;6.22;;;;;;;;;;4965785;28;20392;-70
2023/01/14 07:19:11;;;;;;;6.90;5.53;;;;;;;;;;4980111;28;20051;-69
2023/01/14 07:21:36;;;;;;;7.05;5.70;;;;;;;;;;4965279;28;20305;-63
2023/01/14 07:24:01;;;;;;;7.20;5.80;;;;;;;;;;4965934;28;20399;-67
2023/01/14 07:26:27;;;;;;;6.70;5.30;;;;;;;;;;4984221;28;20540;-63
2023/01/14 07:28:54;;;;;;;7.78;6.15;;;;;;;;;;4949677;28;20043;-62
2023/01/14 07:31:19;;;;;;;7.15;5.70;;;;;;;;;;4981545;28;20500;-66
2023/01/14 07:33:45;;;;;;;7.27;5.73;;;;;;;;;;4970005;28;20031;-68
2023/01/14 07:36:10;;;;;;;7.13;5.38;;;;;;;;;;4977912;28;20659;-65
2023/01/14 07:38:35;;;;;;;6.97;5.53;;;;;;;;;;4974316;28;20042;-72
2023/01/14 07:41:00;;;;;;;6.90;5.30;;;;;;;;;;4970064;28;20274;-76
2023/01/14 07:43:26;;;;;;;8.10;5.97;;;;;;;;;;4972134;28;20535;-72
2023/01/14 07:45:51;;;;;;;8.18;5.70;;;;;;;;;;4973708;28;20337;-73
2023/01/14 07:48:16;;;;;;;6.97;5.60;;;;;;;;;;4955056;28;20520;-64
2023/01/14 07:50:42;;;;;;;7.63;5.80;;;;;;;;;;4969861;28;20035;-70
2023/01/14 07:53:08;;;;;;;7.68;5.55;;;;;;;;;;4976498;28;20388;-57
2023/01/14 07:55:33;;;;;;;7.57;5.75;;;;;;;;;;4935041;28;20558;-66
2023/01/14 07:57:58;;;;;;;7.05;5.43;;;;;;;;;;4976366;28;20043;-67
2023/01/14 08:00:24;;;;;;;6.57;5.50;;;;;;;;;;4971813;28;20045;-69
2023/01/14 08:02:49;;;;;;;7.15;5.80;;;;;;;;;;4971140;28;20495;-62
2023/01/14 08:05:14;;;;;;;7.05;5.63;;;;;;;;;;4969832;28;20077;-69
2023/01/14 08:07:40;;;;;;;6.60;5.20;;;;;;;;;;4967242;28;20958;-68
2023/01/14 08:10:05;;;;;;;7.75;5.30;;;;;;;;;;4952144;28;20122;-73
2023/01/14 08:12:33;;;;;;;6.20;5.47;;;;;;;;;;4972903;28;20030;-64
2023/01/14 08:14:59;;;;;;;6.15;5.40;;;;;;;;;;4956929;28;20038;-71
2023/01/14 08:17:24;;;;;;;6.80;5.50;;;;;;;;;;4976996;28;20054;-65
2023/01/14 08:19:49;;;;;;;8.47;5.70;;;;;;;;;;4972745;28;20563;-63
2023/01/14 08:22:15;;;;;;;7.87;6.13;;;;;;;;;;4942487;28;20286;-69
2023/01/14 08:24:40;;;;;;;7.03;5.80;;;;;;;;;;4961819;28;20377;-61
2023/01/14 08:27:05;;;;;;;10.57;9.10;;;;;;;;;;4967914;28;20286;-69
2023/01/14 08:29:31;;;;;;;18.25;15.10;;;;;;;;;;4938116;28;20070;-74
2023/01/14 08:31:56;;;;;;;24.08;19.90;;;;;;;;;;4938743;28;20522;-65
2023/01/14 08:34:22;;;;;;;34.97;28.27;;;;;;;;;;4978410;28;20034;-71
2023/01/14 08:36:48;;;;;;;43.25;35.08;;;;;;;;;;4962825;28;20286;-68
2023/01/14 08:39:13;;;;;;;36.10;27.65;;;;;;;;;;4985082;28;20085;-61
2023/01/14 08:41:38;;;;;;;47.72;36.65;;;;;;;;;;5002588;28;20045;-66
2023/01/14 08:44:04;;;;;;;56.60;43.72;;;;;;;;;;4987398;28;20116;-75
2023/01/14 08:46:29;;;;;;;39.17;31.23;;;;;;;;;;5006300;28;20466;-60
2023/01/14 08:48:54;;;;;;;27.03;20.37;;;;;;;;;;5004687;28;20542;-65
2023/01/14 08:51:20;;;;;;;29.15;23.17;;;;;;;;;;5007471;28;20281;-76
2023/01/14 08:53:45;;;;;;;28.65;21.92;;;;;;;;;;5001509;28;20026;-73
2023/01/14 08:56:13;;;;;;;30.93;24.30;;;;;;;;;;4981639;28;20497;-72
2023/01/14 08:58:39;;;;;;;29.48;22.77;;;;;;;;;;4999431;28;20831;-75
2023/01/14 09:01:05;;;;;;;28.13;22.33;;;;;;;;;;4967771;28;20038;-73
2023/01/14 09:03:30;;;;;;;31.88;20.90;;;;;;;;;;4973310;28;20320;-69
2023/01/14 09:06:02;;;;;;;25.80;20.25;;;;;;;;;;5007976;28;20548;-71
2023/01/14 09:19:24;;;;;;;26.65;19.13;;;;;;;;;;4979617;28;20092;-70
2023/01/14 09:21:49;;;;;;;24.30;18.17;;;;;;;;;;5004965;28;20073;-65
2023/01/14 09:24:15;;;;;;;23.43;18.67;;;;;;;;;;4997878;28;20332;-71
2023/01/14 09:26:40;;;;;;;22.02;17.98;;;;;;;;;;4959662;28;20698;-75
2023/01/14 09:29:06;;;;;;;22.92;17.65;;;;;;;;;;5005509;28;20050;-72
2023/01/14 09:31:31;;;;;;;19.33;16.77;;;;;;;;;;5006358;28;20042;-75
2023/01/14 09:33:56;;;;;;;23.27;17.13;;;;;;;;;;4987624;28;20567;-70
2023/01/14 09:36:21;;;;;;;21.83;16.23;;;;;;;;;;4988922;28;20277;-68
2023/01/14 09:38:47;;;;;;;21.73;16.50;;;;;;;;;;5004594;28;20723;-67
2023/01/14 09:41:29;;;;;;;20.83;16.17;;;;;;;;;;4999588;28;20037;-68
2023/01/14 09:43:54;;;;;;;20.95;15.82;;;;;;;;;;5006475;28;20030;-68
2023/01/14 09:46:20;;;;;;;19.30;15.48;;;;;;;;;;4972171;28;20537;-72
2023/01/14 09:48:47;;;;;;;20.50;15.70;;;;;;;;;;5005061;28;20056;-74
2023/01/14 09:51:16;;;;;;;21.83;16.00;;;;;;;;;;4995695;28;20023;-76
2023/01/14 09:53:41;;;;;;;21.17;15.57;;;;;;;;;;5006520;28;20124;-73
2023/01/14 09:56:11;;;;;;;20.03;15.50;;;;;;;;;;5004330;28;20070;-66
2023/01/14 09:58:37;;;;;;;18.10;14.77;;;;;;;;;;4991962;28;20117;-67
2023/01/14 10:01:08;;;;;;;18.80;14.68;;;;;;;;;;5004135;28;20203;-71
2023/01/14 10:03:38;;;;;;;19.05;13.90;;;;;;;;;;5003403;28;20038;-75
2023/01/14 10:06:06;;;;;;;17.45;14.35;;;;;;;;;;5003523;28;20189;-71
2023/01/14 10:08:50;;;;;;;19.30;14.25;;;;;;;;;;4989744;28;20421;-72
2023/01/14 10:11:15;;;;;;;18.25;13.63;;;;;;;;;;4987926;28;20041;-74
2023/01/14 10:13:45;;;;;;;18.58;13.52;;;;;;;;;;5004337;28;20486;-74
2023/01/14 10:16:12;;;;;;;17.58;13.82;;;;;;;;;;4984650;28;20030;-75
2023/01/14 10:18:57;;;;;;;15.38;12.75;;;;;;;;;;4998814;28;20076;-76
2023/01/14 10:21:25;;;;;;;16.98;13.82;;;;;;;;;;5004722;28;20054;-66
2023/01/14 10:23:50;;;;;;;18.17;13.57;;;;;;;;;;4990907;28;20478;-69
2023/01/14 10:26:16;;;;;;;16.17;12.98;;;;;;;;;;4986971;28;20041;-68
2023/01/14 10:28:42;;;;;;;15.40;12.57;;;;;;;;;;4996446;28;20077;-68
2023/01/14 10:31:07;;;;;;;14.65;12.50;;;;;;;;;;5007409;28;20022;-72
2023/01/14 10:33:32;;;;;;;16.23;11.77;;;;;;;;;;5005133;28;20339;-70
2023/01/14 10:35:58;;;;;;;14.13;11.63;;;;;;;;;;5001381;28;20768;-71
2023/01/14 10:38:24;;;;;;;15.02;12.27;;;;;;;;;;4972728;28;20049;-72
2023/01/14 10:40:50;;;;;;;14.52;12.20;;;;;;;;;;5003952;28;20024;-66
2023/01/14 10:43:18;;;;;;;15.02;12.07;;;;;;;;;;4993641;28;20505;-69
2023/01/14 10:45:43;;;;;;;16.77;11.68;;;;;;;;;;5002843;28;20034;-68
2023/01/14 10:48:08;;;;;;;14.20;11.67;;;;;;;;;;4994481;28;20408;-71
2023/01/14 10:50:35;;;;;;;14.53;10.93;;;;;;;;;;4987428;28;20276;-65
2023/01/14 10:53:19;;;;;;;15.23;11.18;;;;;;;;;;5005993;28;20264;-72
2023/01/14 10:56:00;;;;;;;15.40;11.50;;;;;;;;;;4990662;28;20042;-68
2023/01/14 10:58:36;;;;;;;14.00;11.07;;;;;;;;;;5001144;28;20518;-71
2023/01/14 11:01:03;;;;;;;13.65;11.18;;;;;;;;;;5006153;28;20052;-69
2023/01/14 11:03:29;;;;;;;13.75;10.68;;;;;;;;;;4992567;28;20168;-73
2023/01/14 11:05:56;;;;;;;13.45;10.55;;;;;;;;;;4998963;28;20053;-67
2023/01/14 11:08:22;;;;;;;13.15;11.13;;;;;;;;;;5003441;28;20038;-67
2023/01/14 11:10:55;;;;;;;12.98;10.40;;;;;;;;;;4986643;28;20040;-72
2023/01/14 11:13:30;;;;;;;12.90;10.82;;;;;;;;;;5000043;28;20222;-69
2023/01/14 11:15:56;;;;;;;13.18;10.43;;;;;;;;;;4998700;28;20522;-71
2023/01/14 11:18:22;;;;;;;13.52;10.93;;;;;;;;;;5003039;28;20045;-73
2023/01/14 11:20:54;;;;;;;13.85;10.25;;;;;;;;;;4999399;28;20595;-68
2023/01/14 11:23:29;;;;;;;12.93;10.10;;;;;;;;;;4999832;28;20126;-71
2023/01/14 11:25:54;;;;;;;12.85;10.05;;;;;;;;;;4985814;28;20046;-66
2023/01/14 11:28:20;;;;;;;11.82;10.05;;;;;;;;;;4990241;28;20050;-70
2023/01/14 11:30:45;;;;;;;11.82;9.77;;;;;;;;;;4984495;28;20122;-69
2023/01/14 11:33:17;;;;;;;14.38;9.98;;;;;;;;;;4985148;28;20302;-71
2023/01/14 11:35:43;;;;;;;13.25;9.73;;;;;;;;;;4977855;28;20026;-69
2023/01/14 11:38:11;;;;;;;12.40;10.53;;;;;;;;;;4982636;28;20423;-74
2023/01/14 11:43:22;;;;;;;12.20;9.77;;;;;;;;;;4990394;28;20092;-64
2023/01/14 11:45:47;;;;;;;12.10;10.13;;;;;;;;;;5005358;28;20127;-60
2023/01/14 11:48:22;;;;;;;12.40;9.32;;;;;;;;;;4994800;28;20116;-72
2023/01/14 11:50:57;;;;;;;11.70;9.85;;;;;;;;;;4997073;28;20045;-68
2023/01/14 11:53:26;;;;;;;11.13;9.10;;;;;;;;;;4979896;28;20035;-58
2023/01/14 11:55:51;;;;;;;11.60;9.05;;;;;;;;;;4979643;28;20326;-71
2023/01/14 11:58:25;;;;;;;11.13;9.15;;;;;;;;;;4980655;28;20817;-64
2023/01/14 12:00:58;;;;;;;11.23;9.30;;;;;;;;;;4996484;28;20119;-70
2023/01/14 12:03:30;;;;;;;13.38;9.13;;;;;;;;;;4993960;28;20058;-70
2023/01/14 12:05:56;;;;;;;12.50;9.68;;;;;;;;;;4988343;28;20140;-69
2023/01/14 12:08:21;;;;;;;13.77;9.23;;;;;;;;;;4997400;28;20120;-66
2023/01/14 12:10:47;;;;;;;21.10;8.98;;;;;;;;;;4988326;28;20274;-60
2023/01/14 12:18:54;;;;;;;11.07;8.40;;;;;;;;;;4986930;28;20056;-64
2023/01/14 12:21:20;;;;;;;11.48;9.50;;;;;;;;;;5008096;28;20095;-66
2023/01/14 12:23:47;;;;;;;12.07;8.88;;;;;;;;;;4991250;28;20061;-70
2023/01/14 12:26:15;;;;;;;14.07;9.07;;;;;;;;;;4963591;28;20043;-66
2023/01/14 12:28:41;;;;;;;11.30;8.50;;;;;;;;;;4990781;28;20045;-69
2023/01/14 12:31:24;;;;;;;9.57;8.30;;;;;;;;;;4976723;28;20095;-70
2023/01/14 12:33:52;;;;;;;11.90;8.75;;;;;;;;;;5012888;28;20311;-63
2023/01/14 12:36:20;;;;;;;13.20;8.88;;;;;;;;;;4992157;28;20030;-67
2023/01/14 12:47:12;;;;;;;12.05;8.70;;;;;;;;;;4993518;28;20129;-65
2023/01/14 12:49:39;;;;;;;13.80;9.52;;;;;;;;;;4989540;28;20125;-70
2023/01/14 12:52:04;;;;;;;12.65;9.15;;;;;;;;;;4989841;28;20045;-65
2023/01/14 12:54:31;;;;;;;12.18;8.48;;;;;;;;;;4989041;28;20095;-63
2023/01/14 12:56:56;;;;;;;11.32;8.90;;;;;;;;;;4999381;28;20532;-72
2023/01/14 12:59:22;;;;;;;10.80;7.93;;;;;;;;;;4979102;28;20038;-67
2023/01/14 13:01:55;;;;;;;10.83;8.47;;;;;;;;;;5014266;28;20083;-68
2023/01/14 13:04:21;;;;;;;11.63;8.85;;;;;;;;;;4977012;28;20297;-67
2023/01/14 13:06:46;;;;;;;10.43;8.57;;;;;;;;;;5002765;28;20049;-68
2023/01/14 13:09:18;;;;;;;12.23;8.52;;;;;;;;;;4993563;28;20038;-63
2023/01/14 13:11:44;;;;;;;10.25;7.85;;;;;;;;;;4998693;28;20053;-67
2023/01/14 13:14:20;;;;;;;11.68;8.25;;;;;;;;;;4989333;28;20033;-68
2023/01/14 13:16:45;;;;;;;10.27;8.43;;;;;;;;;;5005113;28;20046;-66
2023/01/14 13:19:26;;;;;;;12.73;7.90;;;;;;;;;;4959778;28;20603;-66
2023/01/14 13:22:04;;;;;;;10.55;7.68;;;;;;;;;;5005877;28;20854;-71
2023/01/14 13:24:46;;;;;;;10.15;8.68;;;;;;;;;;4963789;28;20570;-64
2023/01/14 13:27:31;;;;;;;10.38;7.75;;;;;;;;;;5003457;28;20030;-68
2023/01/14 13:30:15;;;;;;;12.30;7.82;;;;;;;;;;4995087;28;20518;-66
2023/01/14 13:32:51;;;;;;;12.20;8.20;;;;;;;;;;5004591;28;20038;-67
2023/01/14 13:35:17;;;;;;;10.25;7.47;;;;;;;;;;5006223;28;20182;-70
2023/01/14 13:37:43;;;;;;;10.05;7.28;;;;;;;;;;4968024;28;20117;-65
2023/01/14 13:40:14;;;;;;;10.88;7.72;;;;;;;;;;4983020;28;20184;-69
2023/01/14 13:42:39;;;;;;;9.85;7.65;;;;;;;;;;4972362;28;20050;-66
2023/01/14 13:45:05;;;;;;;9.38;7.65;;;;;;;;;;4973787;28;20080;-66
2023/01/14 13:47:34;;;;;;;9.35;7.10;;;;;;;;;;4964482;28;20035;-67
2023/01/14 13:49:59;;;;;;;9.88;7.28;;;;;;;;;;4972126;28;20034;-67
2023/01/14 13:52:25;;;;;;;8.97;7.97;;;;;;;;;;5004615;28;20045;-64
2023/01/14 13:55:11;;;;;;;9.48;7.40;;;;;;;;;;4992669;28;20116;-70
2023/01/14 13:57:37;;;;;;;10.55;7.63;;;;;;;;;;5006424;28;20045;-69
2023/01/14 14:00:07;;;;;;;9.65;7.47;;;;;;;;;;4976732;28;20042;-69
2023/01/14 14:02:41;;;;;;;9.68;7.35;;;;;;;;;;4997220;28;20038;-71
2023/01/14 14:05:22;;;;;;;8.27;7.15;;;;;;;;;;5003392;28;20050;-70
2023/01/14 14:07:48;;;;;;;8.30;7.18;;;;;;;;;;4986640;28;20034;-67
2023/01/14 14:10:14;;;;;;;9.25;7.43;;;;;;;;;;5005188;28;20026;-72
2023/01/14 14:15:29;;;;;;;8.43;7.25;;;;;;;;;;4993918;28;20117;-67
2023/01/14 14:17:58;;;;;;;8.30;7.28;;;;;;;;;;4988149;28;20119;-65
2023/01/14 14:20:24;;;;;;;8.90;7.13;;;;;;;;;;4999718;28;20069;-69
2023/01/14 14:23:02;;;;;;;8.32;6.80;;;;;;;;;;4988902;28;20030;-68
2023/01/14 14:25:31;;;;;;;8.05;6.28;;;;;;;;;;4992041;28;20054;-68
2023/01/14 14:27:57;;;;;;;7.77;6.43;;;;;;;;;;4998504;28;20043;-63
2023/01/14 14:30:28;;;;;;;7.80;6.50;;;;;;;;;;4996653;28;20121;-67
2023/01/14 14:32:53;;;;;;;12.27;7.60;;;;;;;;;;5007325;28;20295;-69
2023/01/14 14:35:19;;;;;;;8.70;6.90;;;;;;;;;;4998874;28;20025;-69
2023/01/14 14:37:45;;;;;;;8.98;6.40;;;;;;;;;;4969593;28;20288;-71
2023/01/14 14:40:17;;;;;;;12.85;6.97;;;;;;;;;;4986097;28;20410;-70
2023/01/14 14:42:42;;;;;;;9.77;6.65;;;;;;;;;;4992605;28;20174;-67
2023/01/14 14:45:19;;;;;;;10.75;6.75;;;;;;;;;;4998706;28;20489;-66
2023/01/14 14:47:45;;;;;;;8.30;6.22;;;;;;;;;;4990653;28;20050;-67
2023/01/14 14:50:16;;;;;;;8.35;6.72;;;;;;;;;;5004820;28;20470;-68
2023/01/14 14:52:41;;;;;;;10.35;6.75;;;;;;;;;;5006208;28;20030;-73
2023/01/14 14:55:09;;;;;;;10.00;6.40;;;;;;;;;;4975951;28;20521;-70
2023/01/14 14:57:34;;;;;;;9.13;6.85;;;;;;;;;;4990832;28;20379;-68
2023/01/14 15:00:01;;;;;;;9.32;6.65;;;;;;;;;;4991720;28;20123;-63
2023/01/14 15:02:28;;;;;;;9.93;6.63;;;;;;;;;;4973302;28;20034;-71
2023/01/14 15:04:54;;;;;;;9.98;6.65;;;;;;;;;;5005239;28;20447;-73
2023/01/14 15:07:20;;;;;;;10.25;6.20;;;;;;;;;;4999654;28;20041;-63
2023/01/14 15:09:46;;;;;;;9.27;6.55;;;;;;;;;;4992035;28;20041;-66
2023/01/14 15:12:16;;;;;;;8.48;6.43;;;;;;;;;;4990276;28;20030;-68
2023/01/14 15:14:41;;;;;;;;;;;;;;;;;;4996331;28;20022;-66
2023/01/14 15:17:13;;;;;;;11.80;6.43;;;;;;;;;;5004749;28;19936;-66
2023/01/14 15:19:39;;;;;;;8.75;6.03;;;;;;;;;;4987053;28;20085;-68
2023/01/14 15:22:04;;;;;;;8.98;5.32;;;;;;;;;;5005629;28;20061;-67
2023/01/14 15:24:30;;;;;;;11.48;5.72;;;;;;;;;;5008856;28;20100;-69
2023/01/14 15:26:56;;;;;;;9.32;6.05;;;;;;;;;;4990135;28;20111;-68
2023/01/14 15:29:24;;;;;;;13.40;6.03;;;;;;;;;;4989031;28;20682;-64